Time;durP1;ratioP1;P1;durP2;ratioP2;P2;SDS_P1;SDS_P2;PMS_P1;PMS_P2;Temp;Humidity;BMP_temperature;BMP_pressure;BME280_temperature;BME280_humidity;BME280_pressure;Samples;Min_cycle;Max_cycle;Signal;HPM_P1;HPM_P2
2022/08/12 00:44:25;;;;;;;8.27;3.70;;;;;;;23.17;40.00;101805.50;4996346;28;20162;-65
2022/08/12 00:46:57;;;;;;;5.03;3.13;;;;;;;23.12;39.86;101804.69;4995951;28;20049;-66
2022/08/12 00:49:23;;;;;;;6.70;3.80;;;;;;;23.09;40.26;101804.81;4996117;28;20186;-64
2022/08/12 00:52:08;;;;;;;4.32;3.38;;;;;;;23.04;40.05;101804.94;4996060;28;20026;-64
2022/08/12 00:54:47;;;;;;;5.80;3.45;;;;;;;23.04;40.68;101804.00;4995874;28;20030;-65
2022/08/12 00:57:19;;;;;;;5.55;3.45;;;;;;;22.93;40.95;101794.41;4996022;28;20064;-65
2022/08/12 00:59:53;;;;;;;8.77;3.88;;;;;;;22.94;40.45;101808.75;4995834;28;20033;-64
2022/08/12 01:02:30;;;;;;;9.07;3.95;;;;;;;22.88;40.39;101796.31;4979106;28;20105;-64
2022/08/12 01:13:15;;;;;;;6.65;3.90;;;;;;;22.84;40.67;101797.31;4995277;28;20045;-65
2022/08/12 01:15:44;;;;;;;6.57;3.90;;;;;;;22.77;40.89;101795.66;4995225;28;20065;-65
2022/08/12 01:18:13;;;;;;;5.95;3.90;;;;;;;22.79;40.94;101801.94;4995585;28;20023;-65
2022/08/12 01:20:52;;;;;;;7.95;4.15;;;;;;;22.84;40.43;101802.69;4995343;28;20027;-65
2022/08/12 01:23:30;;;;;;;8.57;3.80;;;;;;;22.81;40.59;101796.50;4995480;28;20077;-65
2022/08/12 01:25:59;;;;;;;12.70;4.15;;;;;;;22.78;40.88;101800.13;4995454;28;20037;-64
2022/08/12 01:28:27;;;;;;;6.50;3.80;;;;;;;22.69;41.40;101798.53;4988790;28;20051;-64
2022/08/12 01:30:53;;;;;;;10.73;3.80;;;;;;;22.62;42.00;101796.06;4975945;28;20075;-65
2022/08/12 01:33:20;;;;;;;7.28;4.00;;;;;;;22.57;42.14;101789.88;4958366;28;20027;-65
2022/08/12 01:35:53;;;;;;;7.30;3.80;;;;;;;22.49;42.26;101800.84;4975717;28;20046;-64
2022/08/12 01:38:21;;;;;;;5.90;3.60;;;;;;;22.49;42.06;101804.44;4975703;28;20441;-64
2022/08/12 01:40:50;;;;;;;6.10;3.80;;;;;;;22.50;41.98;101791.84;4975839;28;20027;-65
2022/08/12 01:43:20;;;;;;;5.80;3.67;;;;;;;22.51;42.12;101801.69;4958149;28;20111;-64
2022/08/12 01:46:07;;;;;;;5.40;3.55;;;;;;;22.60;41.24;101797.91;4975349;28;20357;-65
2022/08/12 01:48:54;;;;;;;9.98;3.72;;;;;;;22.47;41.70;101803.56;4975661;28;20035;-64
2022/08/12 01:51:39;;;;;;;9.68;3.70;;;;;;;22.47;42.12;101792.78;4975384;28;20477;-65
2022/08/12 01:54:09;;;;;;;5.35;3.50;;;;;;;22.42;42.94;101797.41;4975301;28;20054;-64
2022/08/12 01:56:49;;;;;;;6.65;3.70;;;;;;;22.44;42.32;101802.75;4975664;28;20437;-65
2022/08/12 02:02:09;;;;;;;7.88;3.75;;;;;;;22.38;42.43;101795.69;4975671;28;20041;-65
2022/08/12 02:11:17;;;;;;;7.28;3.50;;;;;;;22.37;43.04;101795.75;4975182;28;20401;-65
2022/08/12 02:14:17;;;;;;;7.68;4.10;;;;;;;22.38;41.94;101792.13;4975008;28;20045;-65
2022/08/12 02:17:07;;;;;;;6.60;3.90;;;;;;;22.32;42.76;101793.16;4955844;28;20035;-65
2022/08/12 02:19:57;;;;;;;9.73;4.28;;;;;;;22.37;42.52;101796.63;4975118;28;20381;-65
2022/08/12 02:22:37;;;;;;;6.80;4.00;;;;;;;22.45;42.88;101797.34;4974451;28;20031;-64
2022/08/12 02:25:12;;;;;;;5.82;4.18;;;;;;;22.36;43.01;101794.88;4975150;28;20038;-65
2022/08/12 02:27:45;;;;;;;8.20;4.30;;;;;;;22.25;43.23;101794.22;4974634;28;20035;-64
2022/08/12 02:30:22;;;;;;;9.82;4.07;;;;;;;22.15;44.10;101787.28;4994220;28;20045;-65
2022/08/12 02:32:50;;;;;;;5.72;4.05;;;;;;;21.97;44.06;101785.84;4976772;28;20117;-65
2022/08/12 02:35:21;;;;;;;8.77;4.15;;;;;;;21.94;44.27;101788.59;4993945;28;20034;-64
2022/08/12 02:37:49;;;;;;;4.60;3.90;;;;;;;21.89;44.65;101790.50;4994033;28;20172;-64
2022/08/12 02:40:16;;;;;;;7.07;4.25;;;;;;;21.81;44.93;101787.09;4994276;28;20026;-65
2022/08/12 02:42:59;;;;;;;10.82;4.10;;;;;;;21.82;44.15;101786.16;4994169;28;20030;-65
2022/08/12 02:45:34;;;;;;;9.85;4.30;;;;;;;21.74;44.60;101791.69;4993914;28;20034;-65
2022/08/12 02:48:06;;;;;;;6.47;4.28;;;;;;;21.63;45.58;101780.28;4993793;28;20026;-65
2022/08/12 02:50:35;;;;;;;7.95;4.28;;;;;;;21.56;45.53;101790.25;4992713;28;20488;-64
2022/08/12 02:53:03;;;;;;;7.70;4.22;;;;;;;21.61;45.73;101784.78;4993838;28;20041;-64
2022/08/12 02:55:34;;;;;;;7.03;4.30;;;;;;;21.45;45.89;101779.69;4993626;28;20042;-65
2022/08/12 02:58:02;;;;;;;9.20;4.60;;;;;;;21.41;46.16;101780.72;4976877;28;20472;-65
2022/08/12 03:00:28;;;;;;;7.70;4.60;;;;;;;21.46;46.25;101778.81;4993755;28;20102;-65
2022/08/12 03:02:57;;;;;;;9.85;4.90;;;;;;;21.34;46.14;101787.09;4993760;28;20030;-64
2022/08/12 03:05:23;;;;;;;6.43;4.47;;;;;;;21.34;46.44;101786.22;4993686;28;20023;-64
2022/08/12 03:07:52;;;;;;;5.80;4.65;;;;;;;21.33;46.62;101776.41;4993650;28;20379;-65
2022/08/12 03:10:21;;;;;;;7.93;4.75;;;;;;;21.37;46.30;101780.75;4993574;28;20058;-65
2022/08/12 03:12:52;;;;;;;7.55;4.57;;;;;;;21.38;46.32;101778.06;4993468;28;20022;-64
2022/08/12 03:15:21;;;;;;;8.18;4.90;;;;;;;21.34;46.62;101775.47;4993569;28;20552;-64
2022/08/12 03:18:13;;;;;;;7.18;4.88;;;;;;;21.42;46.44;101773.53;4976299;28;20105;-64
2022/08/12 03:20:39;;;;;;;6.55;4.50;;;;;;;21.48;46.54;101779.66;4988152;28;20042;-65
2022/08/12 03:23:10;;;;;;;10.07;4.40;;;;;;;21.47;46.66;101775.19;4993327;28;20026;-64
2022/08/12 03:25:38;;;;;;;7.25;4.53;;;;;;;21.48;46.45;101774.28;4993496;28;20041;-66
2022/08/12 03:28:07;;;;;;;8.80;4.65;;;;;;;21.48;46.50;101771.59;4993479;28;20126;-65
2022/08/12 03:30:32;;;;;;;7.80;4.90;;;;;;;21.42;46.73;101773.53;4993571;28;20034;-65
2022/08/12 03:33:00;;;;;;;8.10;4.80;;;;;;;21.34;47.29;101772.78;4993674;28;20041;-65
2022/08/12 03:35:29;;;;;;;8.35;4.80;;;;;;;21.37;46.85;101764.63;4994876;28;20035;-65
2022/08/12 03:38:00;;;;;;;6.80;4.60;;;;;;;21.35;47.00;101766.47;4979888;28;20034;-65
2022/08/12 04:02:44;;;;;;;8.90;5.07;;;;;;;21.13;48.25;101769.53;4997253;28;20407;-65
2022/08/12 04:05:11;;;;;;;11.52;5.10;;;;;;;21.17;48.06;101773.94;4997234;28;20039;-64
2022/08/12 04:07:37;;;;;;;10.02;5.07;;;;;;;21.05;48.44;101770.59;4996975;28;20038;-64
2022/08/12 04:10:03;;;;;;;10.07;5.13;;;;;;;21.06;48.47;101778.63;4996837;28;20022;-64
2022/08/12 04:15:18;;;;;;;15.15;5.78;;;;;;;20.99;48.62;101780.53;4996847;28;20097;-64
2022/08/12 04:17:46;;;;;;;14.65;5.20;;;;;;;20.94;49.13;101786.88;4996633;28;20284;-64
2022/08/12 04:20:17;;;;;;;8.55;4.97;;;;;;;21.02;48.89;101774.19;4996683;28;20060;-64
2022/08/12 04:22:43;;;;;;;7.83;5.40;;;;;;;21.06;48.84;101786.69;4996585;28;20117;-64
2022/08/12 04:25:10;;;;;;;10.45;5.45;;;;;;;21.01;49.09;101785.88;4996745;28;20508;-65
2022/08/12 04:27:35;;;;;;;9.70;5.07;;;;;;;20.91;49.56;101784.28;4996265;28;20034;-64
2022/08/12 04:30:00;;;;;;;8.02;5.43;;;;;;;20.97;49.18;101776.97;4996280;28;20496;-64
2022/08/12 04:32:26;;;;;;;10.85;5.55;;;;;;;20.96;49.59;101785.06;4996410;28;20412;-65
2022/08/12 04:34:52;;;;;;;9.95;5.50;;;;;;;20.99;49.43;101782.34;4996545;28;20073;-64
2022/08/12 04:37:17;;;;;;;10.10;5.43;;;;;;;20.95;49.50;101786.00;4996529;28;20070;-64
2022/08/12 04:39:44;;;;;;;12.32;5.47;;;;;;;20.97;49.22;101776.97;4996271;28;20026;-64
2022/08/12 04:42:10;;;;;;;11.75;5.10;;;;;;;20.92;49.82;101783.34;4996272;28;20030;-65
2022/08/12 04:44:35;;;;;;;16.90;5.57;;;;;;;20.94;49.69;101784.19;4996252;28;20381;-64
2022/08/12 04:47:01;;;;;;;11.07;5.55;;;;;;;20.90;49.95;101775.34;4995847;28;20105;-64
2022/08/12 04:49:27;;;;;;;8.70;5.68;;;;;;;20.89;50.14;101780.72;4996049;28;20504;-65
2022/08/12 04:51:54;;;;;;;9.18;5.60;;;;;;;20.93;50.18;101785.13;4996228;28;20143;-64
2022/08/12 04:54:21;;;;;;;9.25;5.88;;;;;;;20.91;49.97;101774.41;4995893;28;20061;-63
2022/08/12 04:56:46;;;;;;;8.15;5.40;;;;;;;20.98;49.62;101776.09;4995832;28;20034;-65
2022/08/12 04:59:14;;;;;;;10.38;5.70;;;;;;;20.98;49.99;101775.16;4996406;28;20043;-64
2022/08/12 05:01:39;;;;;;;13.32;8.07;;;;;;;21.05;50.07;101782.22;4995748;28;20101;-64
2022/08/12 05:04:08;;;;;;;9.30;7.25;;;;;;;21.03;50.10;101786.75;4995874;28;20113;-64
2022/08/12 05:06:33;;;;;;;11.25;6.47;;;;;;;21.10;49.91;101785.72;4995783;28;20020;-64
2022/08/12 05:08:59;;;;;;;12.00;5.93;;;;;;;21.12;50.01;101781.22;4978358;28;20118;-64
2022/08/12 05:11:25;;;;;;;10.88;5.97;;;;;;;21.24;50.02;101785.44;4995530;28;20472;-64
2022/08/12 05:13:59;;;;;;;10.95;6.00;;;;;;;21.33;49.57;101782.66;4995834;28;20154;-63
2022/08/12 05:16:25;;;;;;;9.65;5.70;;;;;;;21.30;50.34;101788.03;4995807;28;20407;-65
2022/08/12 05:18:51;;;;;;;8.65;6.20;;;;;;;21.35;50.01;101785.31;4995904;28;20038;-65
2022/08/12 05:21:16;;;;;;;10.60;6.03;;;;;;;21.46;49.84;101780.63;4995688;28;20162;-64
2022/08/12 05:23:42;;;;;;;11.95;6.40;;;;;;;21.48;50.14;101781.47;4995725;28;20109;-64
2022/08/12 05:26:08;;;;;;;10.65;5.70;;;;;;;21.59;49.54;101781.25;4995307;28;20070;-65
2022/08/12 05:28:34;;;;;;;12.73;6.28;;;;;;;21.70;49.71;101793.56;4995182;28;20077;-65
2022/08/12 05:31:03;;;;;;;12.20;6.25;;;;;;;21.66;49.26;101786.47;4995370;28;20057;-65
2022/08/12 05:33:37;;;;;;;12.18;5.43;;;;;;;21.86;49.27;101785.19;4995294;28;20081;-64
2022/08/12 05:36:07;;;;;;;10.50;6.40;;;;;;;21.93;49.26;101786.84;4995161;28;20086;-64
2022/08/12 05:41:19;;;;;;;13.30;6.10;;;;;;;21.91;49.41;101800.31;4995668;28;20511;-65
2022/08/12 05:43:52;;;;;;;9.50;6.00;;;;;;;21.99;48.94;101806.41;4995116;28;20040;-64
2022/08/12 05:46:19;;;;;;;9.52;5.80;;;;;;;22.13;48.85;101802.56;4995052;28;20085;-64
2022/08/12 05:48:45;;;;;;;9.70;5.85;;;;;;;22.21;48.45;101800.59;4995317;28;20029;-64
2022/08/12 05:51:11;;;;;;;8.23;5.50;;;;;;;22.24;48.68;101806.81;4994929;28;20031;-63
2022/08/12 05:53:40;;;;;;;10.40;6.47;;;;;;;22.37;48.29;101807.41;4977593;28;20023;-64
2022/08/12 05:56:06;;;;;;;10.85;5.60;;;;;;;22.49;47.89;101803.56;4994780;28;20037;-65
2022/08/12 05:58:33;;;;;;;12.18;6.32;;;;;;;22.54;47.97;101811.53;4994209;28;20081;-64
2022/08/12 06:01:00;;;;;;;9.18;6.18;;;;;;;22.57;48.29;101811.44;4995055;28;20022;-63
2022/08/12 06:03:26;;;;;;;13.27;5.93;;;;;;;22.69;47.74;101805.75;4994555;28;20085;-64
2022/08/12 06:05:51;;;;;;;12.45;6.45;;;;;;;22.82;47.73;101809.03;4994610;28;20033;-64
2022/08/12 06:08:17;;;;;;;12.98;6.40;;;;;;;22.85;47.08;101808.97;4994698;28;20022;-63
2022/08/12 06:10:44;;;;;;;10.18;6.30;;;;;;;23.01;47.34;101810.38;4994637;28;20063;-64
2022/08/12 06:13:13;;;;;;;7.80;6.40;;;;;;;23.16;46.44;101809.09;4994800;28;20027;-65
2022/08/12 06:15:39;;;;;;;10.30;6.32;;;;;;;23.37;46.33;101808.50;4994476;28;20034;-64
2022/08/12 06:18:10;;;;;;;12.27;6.20;;;;;;;23.52;46.05;101815.31;4994082;28;20029;-64
2022/08/12 06:20:35;;;;;;;9.50;6.50;;;;;;;23.66;45.41;101804.16;4994514;28;20057;-65
2022/08/12 06:23:01;;;;;;;12.32;6.88;;;;;;;23.78;45.06;101808.34;4994404;28;20477;-66
2022/08/12 06:25:28;;;;;;;12.13;6.32;;;;;;;23.90;44.94;101814.28;4994333;28;20029;-66
2022/08/12 06:27:55;;;;;;;9.63;6.80;;;;;;;24.07;44.95;101819.16;4994153;28;20022;-66
2022/08/12 06:30:21;;;;;;;9.05;7.10;;;;;;;24.19;44.29;101816.06;4994345;28;20026;-66
2022/08/12 06:32:48;;;;;;;9.10;6.70;;;;;;;24.24;44.45;101802.47;4994114;28;20030;-66
2022/08/12 06:35:16;;;;;;;9.90;6.57;;;;;;;24.35;44.79;101804.81;4993976;28;20026;-66
2022/08/12 06:37:44;;;;;;;11.13;6.70;;;;;;;24.49;44.14;101814.25;4994082;28;20030;-66
2022/08/12 06:40:11;;;;;;;9.82;6.90;;;;;;;24.66;44.09;101808.31;4994083;28;20488;-66
2022/08/12 06:42:53;;;;;;;13.07;7.60;;;;;;;24.80;44.41;101805.19;4994002;28;20033;-66
2022/08/12 06:45:19;;;;;;;12.20;7.57;;;;;;;25.03;43.06;101798.13;4994393;28;20041;-66
2022/08/12 06:47:45;;;;;;;12.35;6.97;;;;;;;25.12;42.92;101797.81;4993927;28;20031;-66
2022/08/12 06:50:15;;;;;;;10.25;7.63;;;;;;;25.27;42.33;101800.00;4994000;28;20108;-66
2022/08/12 06:52:44;;;;;;;12.40;7.50;;;;;;;25.38;42.10;101805.03;4993913;28;20018;-66
2022/08/12 06:55:14;;;;;;;12.38;7.40;;;;;;;25.55;41.82;101799.00;4993772;28;20160;-66
2022/08/12 06:57:54;;;;;;;11.15;7.50;;;;;;;25.81;41.60;101790.81;4993984;28;20400;-67
2022/08/12 07:00:21;;;;;;;11.27;7.30;;;;;;;26.03;40.48;101800.84;4993757;28;20033;-66
2022/08/12 07:02:47;;;;;;;12.98;7.38;;;;;;;26.19;40.02;101796.59;4993953;28;20046;-66
2022/08/12 07:05:12;;;;;;;21.75;7.80;;;;;;;26.34;40.23;101792.41;4993672;28;20182;-66
2022/08/12 07:07:38;;;;;;;13.77;7.68;;;;;;;26.44;39.90;101789.28;4993654;28;20030;-66
2022/08/12 07:10:03;;;;;;;13.73;7.88;;;;;;;26.62;39.51;101792.19;4976594;28;20031;-66
2022/08/12 07:12:30;;;;;;;12.02;7.22;;;;;;;26.85;38.70;101783.06;4976147;28;20029;-66
2022/08/12 07:15:00;;;;;;;16.17;7.18;;;;;;;27.02;37.79;101790.50;4993728;28;20432;-66
2022/08/12 07:17:34;;;;;;;11.60;7.03;;;;;;;27.10;38.32;101788.38;4993367;28;20113;-66
2022/08/12 07:19:59;;;;;;;12.20;6.93;;;;;;;27.27;37.07;101793.06;4993762;28;20030;-66
2022/08/12 07:22:25;;;;;;;12.02;7.13;;;;;;;27.39;37.31;101796.13;4993800;28;20495;-66
2022/08/12 07:25:29;;;;;;;13.07;7.45;;;;;;;27.55;36.98;101796.31;4993511;28;20038;-67
2022/08/12 07:27:41;;;;;;;14.73;7.00;;;;;;;27.81;37.01;101803.31;4993369;28;20121;-66
2022/08/12 07:30:08;;;;;;;21.40;7.00;;;;;;;27.93;36.23;101800.03;4993673;28;20169;-67
2022/08/12 07:32:34;;;;;;;16.98;6.90;;;;;;;28.22;36.17;101803.19;4993632;28;20392;-66
2022/08/12 07:34:59;;;;;;;17.13;6.85;;;;;;;28.44;35.63;101805.81;4993363;28;20030;-66
2022/08/12 07:37:24;;;;;;;16.10;6.68;;;;;;;28.59;35.48;101805.03;4993408;28;20054;-67
2022/08/12 07:39:50;;;;;;;10.93;6.60;;;;;;;28.63;35.52;101812.09;4993416;28;20113;-66
2022/08/12 07:42:15;;;;;;;11.13;6.10;;;;;;;28.98;34.95;101814.91;4993474;28;20054;-66
2022/08/12 07:44:42;;;;;;;9.73;6.60;;;;;;;29.03;33.99;101809.22;4993349;28;20058;-66
2022/08/12 07:47:08;;;;;;;14.07;6.85;;;;;;;29.18;33.72;101811.16;4992992;28;20629;-67
2022/08/12 07:49:33;;;;;;;13.27;6.45;;;;;;;29.31;32.94;101805.97;4993420;28;20062;-67
2022/08/12 07:51:59;;;;;;;11.98;6.13;;;;;;;29.47;33.19;101814.22;4993164;28;20027;-67
2022/08/12 07:54:25;;;;;;;13.07;6.47;;;;;;;29.52;33.24;101803.94;4993258;28;20042;-67
2022/08/12 07:56:50;;;;;;;9.45;5.97;;;;;;;29.89;32.40;101811.00;4975843;28;20044;-67
2022/08/12 07:59:15;;;;;;;11.95;6.15;;;;;;;30.02;31.65;101812.13;4993323;28;20022;-67
2022/08/12 08:01:42;;;;;;;11.23;6.50;;;;;;;30.12;31.82;101815.22;4993249;28;20113;-67
2022/08/12 08:06:52;;;;;;;11.65;5.10;;;;;;;30.33;30.87;101815.88;4993560;28;20559;-67
2022/08/12 08:09:21;;;;;;;11.93;4.70;;;;;;;30.44;30.73;101817.00;4993080;28;20044;-67
2022/08/12 08:14:32;;;;;;;11.30;4.60;;;;;;;30.74;29.06;101818.09;4993424;28;20049;-67
2022/08/12 08:17:00;;;;;;;15.02;4.82;;;;;;;30.98;29.97;101816.63;4992785;28;20038;-67
2022/08/12 08:19:27;;;;;;;10.60;5.00;;;;;;;31.25;28.12;101822.28;4993441;28;20042;-67
2022/08/12 08:21:54;;;;;;;10.60;4.90;;;;;;;31.13;28.42;101812.97;4995209;28;20026;-67
2022/08/12 08:24:23;;;;;;;13.13;5.00;;;;;;;31.39;27.67;101826.94;4996703;28;20090;-67
2022/08/12 08:26:51;;;;;;;8.95;4.35;;;;;;;31.53;27.74;101821.50;4996521;28;20022;-67
2022/08/12 08:29:20;;;;;;;13.95;4.60;;;;;;;31.82;28.34;101824.25;4996373;28;20378;-67
2022/08/12 08:31:49;;;;;;;13.10;4.55;;;;;;;31.88;26.72;101824.78;4996260;28;20113;-67
2022/08/12 08:34:16;;;;;;;8.05;4.40;;;;;;;31.86;27.27;101821.28;4996359;28;20439;-67
2022/08/12 08:36:42;;;;;;;13.70;4.97;;;;;;;31.99;27.06;101821.38;4996441;28;20493;-67
2022/08/12 08:39:09;;;;;;;12.23;5.15;;;;;;;32.18;26.53;101818.34;4996176;28;20038;-67
2022/08/12 08:44:19;;;;;;;15.20;4.93;;;;;;;32.38;26.15;101812.47;4996419;28;20129;-67
2022/08/12 08:46:46;;;;;;;12.93;4.40;;;;;;;32.71;25.65;101816.66;4996005;28;20465;-67
2022/08/12 08:49:12;;;;;;;13.73;4.43;;;;;;;32.80;25.39;101816.03;4996039;28;20465;-67
2022/08/12 08:51:38;;;;;;;7.32;4.10;;;;;;;32.94;25.52;101809.69;4996153;28;20473;-67
2022/08/12 08:54:05;;;;;;;10.93;4.75;;;;;;;33.16;24.85;101814.56;4995906;28;20495;-67
2022/08/12 08:56:31;;;;;;;13.20;4.40;;;;;;;33.29;24.05;101812.72;4996043;28;20038;-67
2022/08/12 08:58:58;;;;;;;9.88;4.03;;;;;;;33.63;23.49;101813.13;4996248;28;20116;-67
2022/08/12 09:01:25;;;;;;;6.30;3.42;;;;;;;33.77;23.13;101817.63;4995909;28;20031;-67
2022/08/12 09:03:50;;;;;;;6.28;3.50;;;;;;;33.77;23.03;101812.13;4996119;28;20048;-67
2022/08/12 09:06:16;;;;;;;11.40;3.80;;;;;;;33.84;22.94;101814.31;4995804;28;20041;-67
2022/08/12 09:08:42;;;;;;;8.95;3.70;;;;;;;33.97;22.39;101814.34;4994714;28;20531;-67
2022/08/12 09:13:52;;;;;;;8.48;3.75;;;;;;;34.42;21.58;101809.19;4996010;28;20049;-67
2022/08/12 09:16:19;;;;;;;6.93;3.53;;;;;;;34.37;20.39;101814.16;4995552;28;20030;-67
2022/08/12 09:18:44;;;;;;;7.82;3.50;;;;;;;34.43;20.97;101812.78;4995430;28;20393;-67
2022/08/12 09:21:10;;;;;;;6.88;3.65;;;;;;;34.64;21.58;101809.34;4995623;28;20030;-67
2022/08/12 09:23:35;;;;;;;8.40;3.58;;;;;;;34.98;21.13;101804.06;4995410;28;20042;-68
2022/08/12 09:26:01;;;;;;;9.90;3.20;;;;;;;35.11;19.77;101803.97;4995520;28;20030;-67
2022/08/12 09:28:28;;;;;;;8.15;3.22;;;;;;;35.21;19.72;101810.53;4995080;28;20500;-67
2022/08/12 09:30:56;;;;;;;15.90;3.30;;;;;;;35.19;20.16;101804.25;4977923;28;20061;-67
2022/08/12 09:33:29;;;;;;;9.77;3.30;;;;;;;35.28;19.41;101802.66;4994265;28;20030;-67
2022/08/12 09:35:56;;;;;;;6.45;3.40;;;;;;;35.46;19.62;101798.47;4995367;28;20046;-67
2022/08/12 09:38:22;;;;;;;15.57;3.60;;;;;;;35.58;20.00;101789.25;4995063;28;20030;-67
2022/08/12 09:40:48;;;;;;;6.70;3.25;;;;;;;35.83;19.18;101790.91;4995042;28;20512;-67
2022/08/12 09:46:01;;;;;;;11.38;3.30;;;;;;;35.61;19.38;101783.53;4995280;28;20100;-67
2022/08/12 09:48:27;;;;;;;9.57;3.58;;;;;;;35.83;19.23;101790.91;4994536;28;20018;-67
2022/08/12 09:50:52;;;;;;;6.53;3.47;;;;;;;35.75;20.09;101781.53;4994734;28;20500;-68
2022/08/12 09:53:23;;;;;;;8.85;3.15;;;;;;;35.91;19.60;101792.16;4995105;28;20023;-67
2022/08/12 09:55:55;;;;;;;5.22;3.10;;;;;;;36.10;19.28;101786.91;4995078;28;20026;-65
2022/08/12 09:58:27;;;;;;;13.75;3.60;;;;;;;36.42;19.03;101781.50;4994885;28;20061;-64
2022/08/12 10:01:00;;;;;;;10.73;3.33;;;;;;;36.27;18.37;101774.50;4978394;28;20078;-64
2022/08/12 10:03:27;;;;;;;6.25;3.28;;;;;;;36.24;18.89;101783.03;4994645;28;20463;-64
2022/08/12 10:05:54;;;;;;;7.25;3.22;;;;;;;36.19;18.00;101777.03;4994825;28;20034;-64
2022/08/12 10:08:22;;;;;;;10.50;3.40;;;;;;;36.44;18.02;101771.25;4994702;28;20485;-64
2022/08/12 10:13:42;;;;;;;6.55;3.10;;;;;;;36.14;17.58;101760.91;4994960;28;20090;-64
2022/08/12 10:16:11;;;;;;;9.63;3.20;;;;;;;36.36;18.10;101770.97;4994405;28;20547;-64
2022/08/12 10:18:40;;;;;;;5.78;3.20;;;;;;;36.32;18.71;101773.16;4994593;28;20093;-64
2022/08/12 10:21:11;;;;;;;7.75;3.20;;;;;;;36.41;19.01;101760.47;4994324;28;20117;-64
2022/08/12 10:23:38;;;;;;;11.32;3.35;;;;;;;36.64;18.53;101758.56;4994374;28;20113;-63
2022/08/12 10:31:32;;;;;;;7.88;3.00;;;;;;;36.69;17.02;101759.03;4994614;28;20040;-64
2022/08/12 10:33:57;;;;;;;8.10;3.00;;;;;;;36.98;17.98;101750.16;4994317;28;20022;-65
2022/08/12 10:36:23;;;;;;;9.77;3.40;;;;;;;37.19;17.33;101742.78;4994087;28;20045;-64
2022/08/12 10:38:53;;;;;;;9.98;3.50;;;;;;;37.33;17.76;101742.44;4994028;28;20035;-64
2022/08/12 10:44:04;;;;;;;13.30;3.20;;;;;;;37.50;17.34;101732.69;4979504;28;20100;-64
2022/08/12 10:46:30;;;;;;;7.00;3.13;;;;;;;37.19;16.65;101731.75;4993806;28;20403;-64
2022/08/12 10:48:56;;;;;;;5.85;3.25;;;;;;;36.80;17.00;101727.81;4994053;28;20034;-64
2022/08/12 10:51:22;;;;;;;11.27;3.35;;;;;;;36.82;16.81;101715.66;4993817;28;20400;-64
2022/08/12 10:53:47;;;;;;;7.72;3.20;;;;;;;36.83;17.51;101720.16;4993303;28;20033;-64
2022/08/12 10:56:17;;;;;;;9.70;3.50;;;;;;;36.80;17.52;101717.66;4993436;28;20034;-64
2022/08/12 10:58:45;;;;;;;6.82;3.20;;;;;;;37.12;16.73;101721.41;4993802;28;20062;-64
2022/08/12 11:01:11;;;;;;;8.43;3.17;;;;;;;37.28;17.11;101717.16;4993811;28;20041;-64
2022/08/12 11:03:37;;;;;;;7.45;3.03;;;;;;;36.90;17.28;101717.72;4993808;28;20042;-65
2022/08/12 11:06:07;;;;;;;8.43;3.20;;;;;;;37.08;16.69;101713.41;4993805;28;20090;-64
2022/08/12 11:08:36;;;;;;;12.63;3.40;;;;;;;36.85;16.56;101709.88;4993623;28;20121;-64
2022/08/12 11:11:07;;;;;;;7.63;3.10;;;;;;;37.14;16.19;101698.22;4993672;28;20089;-64
2022/08/12 11:13:33;;;;;;;12.07;3.35;;;;;;;37.46;15.97;101697.25;4993867;28;20069;-63
2022/08/12 11:16:00;;;;;;;7.00;3.28;;;;;;;37.71;16.55;101705.06;4993735;28;20078;-64
2022/08/12 11:18:26;;;;;;;10.45;3.30;;;;;;;37.34;16.10;101694.53;4993322;28;20030;-64
2022/08/12 11:20:53;;;;;;;6.57;2.92;;;;;;;37.28;16.27;101692.34;4993470;28;20117;-64
2022/08/12 11:23:20;;;;;;;8.13;3.10;;;;;;;37.30;16.51;101692.19;4993632;28;20030;-64
2022/08/12 11:25:47;;;;;;;7.20;3.30;;;;;;;37.44;15.98;101688.25;4993402;28;20057;-64
2022/08/12 11:28:13;;;;;;;6.03;2.95;;;;;;;37.51;16.54;101684.78;4993499;28;20108;-64
2022/08/12 11:30:39;;;;;;;6.15;3.13;;;;;;;37.48;15.83;101682.31;4993441;28;20515;-64
2022/08/12 11:33:04;;;;;;;6.18;3.10;;;;;;;37.52;16.03;101675.53;4993267;28;20061;-64
2022/08/12 11:35:30;;;;;;;12.45;3.40;;;;;;;37.59;15.95;101667.53;4993495;28;20512;-64
2022/08/12 11:37:55;;;;;;;6.22;3.08;;;;;;;37.63;16.61;101679.19;4993446;28;20026;-63
2022/08/12 11:40:21;;;;;;;8.18;2.95;;;;;;;37.61;16.04;101690.38;4993608;28;20038;-64
2022/08/12 11:42:47;;;;;;;9.00;3.40;;;;;;;37.46;15.32;101687.09;4993437;28;20436;-64
2022/08/12 11:45:13;;;;;;;8.52;3.10;;;;;;;37.18;15.49;101665.75;4993698;28;20027;-66
2022/08/12 11:47:38;;;;;;;7.97;3.35;;;;;;;37.61;15.65;101675.69;4993005;28;20523;-64
2022/08/12 11:50:04;;;;;;;12.25;3.50;;;;;;;37.67;15.64;101669.63;4993419;28;20416;-66
2022/08/12 11:52:30;;;;;;;5.95;3.25;;;;;;;37.93;15.59;101657.06;4993480;28;20023;-64
2022/08/12 11:54:55;;;;;;;8.60;3.03;;;;;;;37.86;15.21;101655.94;4993093;28;20198;-64
2022/08/12 11:57:21;;;;;;;7.28;3.03;;;;;;;37.46;15.42;101665.03;4996460;28;20065;-67
2022/08/12 11:59:46;;;;;;;7.43;3.25;;;;;;;37.61;15.91;101665.53;4997055;28;20031;-65
2022/08/12 12:02:12;;;;;;;10.57;3.10;;;;;;;37.70;15.84;101666.59;4997218;28;20538;-65
2022/08/12 12:04:37;;;;;;;8.93;3.15;;;;;;;37.93;15.24;101656.22;4996915;28;20485;-64
2022/08/12 12:07:03;;;;;;;6.63;3.20;;;;;;;38.14;15.02;101654.22;4997035;28;20034;-66
2022/08/12 12:09:28;;;;;;;7.95;3.08;;;;;;;38.18;15.26;101639.09;4996878;28;20023;-66
2022/08/12 12:11:54;;;;;;;8.68;3.20;;;;;;;37.90;15.40;101645.44;4996927;28;20070;-66
2022/08/12 12:14:19;;;;;;;6.47;3.20;;;;;;;38.29;15.48;101643.63;4996797;28;20070;-64
2022/08/12 12:16:44;;;;;;;11.15;3.30;;;;;;;38.43;15.21;101634.06;4996434;28;20037;-65
2022/08/12 12:19:10;;;;;;;9.85;3.28;;;;;;;38.46;15.00;101640.16;4979452;28;20416;-65
2022/08/12 12:21:36;;;;;;;12.50;3.30;;;;;;;38.44;15.36;101636.66;4979244;28;20026;-65
2022/08/12 12:24:01;;;;;;;8.45;3.28;;;;;;;38.62;14.69;101635.94;4979192;28;20026;-64
2022/08/12 12:26:27;;;;;;;8.02;3.20;;;;;;;38.69;13.57;101632.44;4996656;28;20109;-66
2022/08/12 12:28:52;;;;;;;7.70;3.10;;;;;;;38.63;14.16;101627.50;4986891;28;20067;-64
2022/08/12 12:31:17;;;;;;;7.47;3.20;;;;;;;38.80;14.54;101625.88;4976972;28;20031;-65
2022/08/12 12:33:43;;;;;;;10.27;3.25;;;;;;;38.99;14.31;101627.75;4976878;28;20465;-66
2022/08/12 12:36:08;;;;;;;7.68;3.10;;;;;;;39.21;14.88;101623.75;4977015;28;20110;-62
2022/08/12 12:38:34;;;;;;;9.60;3.40;;;;;;;39.65;14.55;101615.69;4976846;28;20027;-66
2022/08/12 12:41:00;;;;;;;9.30;3.42;;;;;;;39.55;14.44;101611.09;4976899;28;20033;-67
2022/08/12 12:43:25;;;;;;;7.15;3.35;;;;;;;39.58;13.73;101600.75;4976873;28;20110;-65
2022/08/12 12:45:51;;;;;;;9.40;3.53;;;;;;;39.64;14.24;101605.66;4976741;28;20416;-65
2022/08/12 12:48:18;;;;;;;9.38;3.88;;;;;;;39.63;13.95;101604.78;4976671;28;20050;-64
2022/08/12 12:51:14;;;;;;;9.18;3.50;;;;;;;39.20;14.41;101611.81;4976864;28;20436;-63
2022/08/12 12:53:37;;;;;;;13.23;3.58;;;;;;;39.24;14.70;101610.53;4976568;28;20071;-64
2022/08/12 12:56:03;;;;;;;5.95;3.60;;;;;;;38.99;15.07;101613.94;4976481;28;20042;-64
2022/08/12 12:58:29;;;;;;;8.32;3.60;;;;;;;38.78;14.65;101598.41;4976520;28;20018;-63
2022/08/12 13:01:00;;;;;;;4.63;3.40;;;;;;;38.96;14.34;101595.72;4976503;28;20034;-65
2022/08/12 13:03:26;;;;;;;9.05;3.50;;;;;;;39.28;14.49;101600.03;4976624;28;20030;-63
2022/08/12 13:05:51;;;;;;;8.02;3.50;;;;;;;39.03;14.46;101584.97;4976363;28;20030;-66
2022/08/12 13:08:23;;;;;;;10.38;3.85;;;;;;;39.10;14.41;101588.84;4976295;28;20090;-65
2022/08/12 13:10:52;;;;;;;9.38;3.60;;;;;;;38.94;14.90;101583.97;4976299;28;20031;-64
2022/08/12 13:13:19;;;;;;;10.05;3.45;;;;;;;38.51;15.31;101577.06;4976109;28;20031;-63
2022/08/12 13:15:48;;;;;;;8.77;3.63;;;;;;;38.47;15.47;101577.53;4976215;28;20034;-65
2022/08/12 13:18:17;;;;;;;9.55;3.70;;;;;;;38.67;15.46;101578.34;4976023;28;20082;-64
2022/08/12 13:20:44;;;;;;;8.98;3.38;;;;;;;38.85;15.29;101575.72;4976301;28;20090;-64